Thunder radar more information blitzortung!


Radar de pluja more information rain snow radar


Visita la nostra xarxa de llocs de meteo:

Template documentation
and downloads

And another site



No particular awareness of the weather is required.    There are no Weather-warnings

Pagina Historial Weather Underground text

Diari Resum Juliol 25, 2017 Unitats:  Mètric    Imperial   Tant
« Previous Dia
SegĂźent Dia »
Diari Setmana Mensual Anual Personalitzada
  Maxima: Minima: Media:
Temperatura: 30.7 °C 18.2 °C 25.1 °C
Punt de rosada: 17.8 °C 10.9 °C 14.5 °C
Humitat: 75 % 35 % 53 %
Wind Speed: 24.5 km/h 0.0 km/h 8.1 km/h
RĂ fegues de vent: 24.5 km/h - -
Vent:- - SSW
Pression baro: 1014.8 hPa 1010.7 hPa -
Precipitacions: 0.0 mm    
Historical Graphs
 
 
Dades de taula per Juliol 25, 2017
Temps Temperatura Punt de rosada Pression baro Vent Wind Speed RĂ fegues de vent Humitat Rainfall Rate (Hourly)
00:03 22.5 °C 17.6 °C 1013.8 hPa NE 4.7 km/h 4.7 km/h 74 % 0.0 mm
00:05 20.3 °C 12.0 °C 1013.8 hPa WSW 4.8 km/h 4.8 km/h 59 % 0.0 mm
00:08 22.5 °C 17.8 °C 1014.8 hPa East 3.7 km/h 3.7 km/h 75 % 0.0 mm
00:15 20.1 °C 11.8 °C 1013.8 hPa WSW 3.2 km/h 4.8 km/h 59 % 0.0 mm
00:25 19.9 °C 11.9 °C 1013.8 hPa WNW 1.6 km/h 6.4 km/h 60 % 0.0 mm
00:35 19.7 °C 11.7 °C 1013.8 hPa NNW 1.6 km/h 3.2 km/h 60 % 0.0 mm
00:45 19.5 °C 11.5 °C 1013.8 hPa NNW 1.6 km/h 1.6 km/h 60 % 0.0 mm
00:55 19.3 °C 11.3 °C 1013.8 hPa WSW 3.2 km/h 4.8 km/h 60 % 0.0 mm
01:05 19.2 °C 11.2 °C 1013.8 hPa SW 1.6 km/h 4.8 km/h 60 % 0.0 mm
01:15 19.0 °C 11.3 °C 1013.8 hPa SW 1.6 km/h 3.2 km/h 61 % 0.0 mm
01:25 18.9 °C 11.4 °C 1013.8 hPa WSW 1.6 km/h 3.2 km/h 62 % 0.0 mm
01:30 18.8 °C 11.4 °C 1013.8 hPa WSW 3.2 km/h 3.2 km/h 62 % 0.0 mm
01:40 18.6 °C 11.4 °C 1012.8 hPa Calm   3.2 km/h 63 % 0.0 mm
01:50 18.5 °C 11.3 °C 1012.8 hPa WSW 1.6 km/h 3.2 km/h 63 % 0.0 mm
02:00 18.4 °C 11.2 °C 1013.8 hPa Calm   1.6 km/h 63 % 0.0 mm
02:10 18.4 °C 11.4 °C 1013.8 hPa SW 1.6 km/h 3.2 km/h 64 % 0.0 mm
02:20 18.2 °C 11.3 °C 1013.8 hPa SW 1.6 km/h 1.6 km/h 64 % 0.0 mm
02:30 18.5 °C 11.6 °C 1013.8 hPa WSW 1.6 km/h 3.2 km/h 64 % 0.0 mm
02:40 18.8 °C 11.8 °C 1013.8 hPa WSW 1.6 km/h 3.2 km/h 64 % 0.0 mm
02:50 19.2 °C 12.0 °C 1013.8 hPa WSW 1.6 km/h 3.2 km/h 63 % 0.0 mm
03:00 19.8 °C 12.3 °C 1013.8 hPa WSW 1.6 km/h 4.8 km/h 62 % 0.0 mm
03:10 19.9 °C 12.2 °C 1013.8 hPa WSW 1.6 km/h 3.2 km/h 61 % 0.0 mm
03:20 20.0 °C 12.0 °C 1013.8 hPa West 3.2 km/h 4.8 km/h 60 % 0.0 mm
03:30 20.6 °C 12.3 °C 1013.8 hPa WNW 1.6 km/h 4.8 km/h 59 % 0.0 mm
03:40 21.2 °C 12.9 °C 1013.8 hPa WNW 3.2 km/h 3.2 km/h 59 % 0.0 mm
03:50 22.0 °C 13.1 °C 1013.8 hPa NW 1.6 km/h 4.8 km/h 57 % 0.0 mm
04:00 21.4 °C 12.8 °C 1013.8 hPa Calm   4.8 km/h 58 % 0.0 mm
04:10 21.4 °C 12.5 °C 1013.8 hPa NNW 1.6 km/h 3.2 km/h 57 % 0.0 mm
04:20 21.0 °C 12.4 °C 1013.8 hPa WSW 3.2 km/h 4.8 km/h 58 % 0.0 mm
04:30 21.5 °C 12.6 °C 1013.8 hPa SW 1.6 km/h 4.8 km/h 57 % 0.0 mm
04:40 22.5 °C 13.3 °C 1013.8 hPa SW 3.2 km/h 3.2 km/h 56 % 0.0 mm
04:50 23.0 °C 13.4 °C 1013.8 hPa WSW 3.2 km/h 4.8 km/h 55 % 0.0 mm
05:00 23.1 °C 13.3 °C 1013.8 hPa WSW 1.6 km/h 6.4 km/h 54 % 0.0 mm
05:10 23.9 °C 13.7 °C 1013.8 hPa WSW 1.6 km/h 6.4 km/h 53 % 0.0 mm
05:20 24.8 °C 14.3 °C 1013.8 hPa SSW 1.6 km/h 6.4 km/h 52 % 0.0 mm
05:30 24.8 °C 14.0 °C 1013.8 hPa SW 3.2 km/h 6.4 km/h 51 % 0.0 mm
05:40 24.9 °C 13.8 °C 1013.8 hPa SW 3.2 km/h 8.0 km/h 50 % 0.0 mm
10:45 24.8 °C 13.7 °C 1013.8 hPa West 3.7 km/h 3.7 km/h 50 % 0.0 mm
10:50 24.6 °C 13.2 °C 1013.8 hPa WNW 5.6 km/h 5.6 km/h 49 % 0.0 mm
10:51 24.8 °C 13.7 °C 1013.8 hPa SW 5.6 km/h 5.6 km/h 50 % 0.0 mm
10:56 25.4 °C 13.6 °C 1013.8 hPa SW 5.6 km/h 5.6 km/h 48 % 0.0 mm
11:01 25.0 °C 13.6 °C 1013.8 hPa WNW 5.6 km/h 5.6 km/h 49 % 0.0 mm
11:06 24.7 °C 13.3 °C 1013.8 hPa West 3.7 km/h 3.7 km/h 49 % 0.0 mm
11:11 24.7 °C 13.3 °C 1013.8 hPa WSW 7.4 km/h 7.4 km/h 49 % 0.0 mm
11:16 24.9 °C 13.1 °C 1013.8 hPa SW 3.7 km/h 3.7 km/h 48 % 0.0 mm
11:21 25.5 °C 13.3 °C 1013.8 hPa South 5.3 km/h 5.3 km/h 47 % 0.0 mm
11:26 26.0 °C 13.8 °C 1013.8 hPa SW 7.4 km/h 7.4 km/h 47 % 0.0 mm
11:31 26.3 °C 14.1 °C 1013.8 hPa West 3.7 km/h 3.7 km/h 47 % 0.0 mm
11:36 26.8 °C 14.6 °C 1013.8 hPa West 10.0 km/h 10.0 km/h 47 % 0.0 mm
11:41 27.0 °C 14.1 °C 1013.8 hPa WNW 9.3 km/h 9.3 km/h 45 % 0.0 mm
11:46 27.1 °C 13.8 °C 1013.8 hPa WSW 7.4 km/h 7.4 km/h 44 % 0.0 mm
11:51 27.3 °C 13.6 °C 1013.8 hPa WNW 9.3 km/h 9.3 km/h 43 % 0.0 mm
11:56 27.4 °C 13.3 °C 1013.8 hPa WNW 9.3 km/h 9.3 km/h 42 % 0.0 mm
12:01 27.5 °C 13.4 °C 1013.8 hPa SSE 9.3 km/h 9.3 km/h 42 % 0.0 mm
12:06 28.2 °C 14.1 °C 1012.8 hPa WSW 6.9 km/h 6.9 km/h 42 % 0.0 mm
12:11 28.4 °C 13.9 °C 1012.8 hPa West 9.3 km/h 9.3 km/h 41 % 0.0 mm
12:16 28.5 °C 13.9 °C 1012.8 hPa North 5.6 km/h 6.1 km/h 41 % 0.0 mm
12:21 28.8 °C 13.4 °C 1012.8 hPa SW 7.9 km/h 7.9 km/h 39 % 0.0 mm
12:26 28.8 °C 13.8 °C 1012.8 hPa WSW 7.4 km/h 7.4 km/h 40 % 0.0 mm
12:31 28.4 °C 13.1 °C 1012.8 hPa SW 9.3 km/h 9.3 km/h 39 % 0.0 mm
12:36 28.7 °C 13.4 °C 1012.8 hPa WSW 9.5 km/h 9.5 km/h 39 % 0.0 mm
12:41 28.9 °C 12.7 °C 1012.8 hPa SE 3.7 km/h 3.7 km/h 37 % 0.0 mm
12:46 28.9 °C 13.2 °C 1012.8 hPa SSW 7.4 km/h 7.4 km/h 38 % 0.0 mm
12:51 29.0 °C 12.4 °C 1011.7 hPa SW 13.0 km/h 13.0 km/h 36 % 0.0 mm
12:56 29.7 °C 13.4 °C 1011.7 hPa WSW 7.4 km/h 7.4 km/h 37 % 0.0 mm
13:01 29.7 °C 13.4 °C 1011.7 hPa SW 9.0 km/h 9.0 km/h 37 % 0.0 mm
13:06 29.8 °C 13.1 °C 1011.7 hPa SSW 7.9 km/h 7.9 km/h 36 % 0.0 mm
13:11 30.4 °C 13.7 °C 1011.7 hPa SSE 6.1 km/h 6.1 km/h 36 % 0.0 mm
13:16 30.4 °C 13.7 °C 1011.7 hPa SSW 5.6 km/h 5.6 km/h 36 % 0.0 mm
13:21 30.0 °C 13.3 °C 1011.7 hPa South 9.3 km/h 9.3 km/h 36 % 0.0 mm
13:26 30.0 °C 12.9 °C 1011.7 hPa SSE 9.3 km/h 9.3 km/h 35 % 0.0 mm
13:31 29.9 °C 13.2 °C 1011.7 hPa South 3.7 km/h 3.7 km/h 36 % 0.0 mm
13:36 30.0 °C 13.3 °C 1011.7 hPa WSW 11.1 km/h 11.1 km/h 36 % 0.0 mm
13:41 29.8 °C 13.1 °C 1011.7 hPa East 6.1 km/h 6.1 km/h 36 % 0.0 mm
13:46 30.3 °C 13.6 °C 1011.7 hPa SW 10.0 km/h 10.0 km/h 36 % 0.0 mm
13:51 30.3 °C 13.1 °C 1011.7 hPa South 5.0 km/h 5.0 km/h 35 % 0.0 mm
13:57 29.9 °C 13.6 °C 1011.7 hPa SSW 14.8 km/h 14.8 km/h 37 % 0.0 mm
13:58 30.1 °C 13.8 °C 1011.7 hPa WSW 7.4 km/h 7.4 km/h 37 % 0.0 mm
14:03 30.5 °C 14.6 °C 1011.7 hPa SW 9.3 km/h 9.3 km/h 38 % 0.0 mm
14:08 30.2 °C 14.3 °C 1010.7 hPa SW 7.4 km/h 7.4 km/h 38 % 0.0 mm
14:13 30.7 °C 14.8 °C 1010.7 hPa SW 13.0 km/h 13.0 km/h 38 % 0.0 mm
14:18 30.1 °C 13.8 °C 1010.7 hPa WSW 16.7 km/h 16.7 km/h 37 % 0.0 mm
14:23 30.2 °C 13.9 °C 1011.7 hPa SW 13.0 km/h 13.0 km/h 37 % 0.0 mm
14:28 30.0 °C 13.7 °C 1011.7 hPa WSW 13.0 km/h 13.0 km/h 37 % 0.0 mm
14:33 29.6 °C 13.8 °C 1011.7 hPa WSW 18.5 km/h 18.5 km/h 38 % 0.0 mm
14:38 29.6 °C 14.2 °C 1011.7 hPa SW 12.6 km/h 12.6 km/h 39 % 0.0 mm
14:43 29.7 °C 14.3 °C 1011.7 hPa SW 16.1 km/h 16.1 km/h 39 % 0.0 mm
14:48 29.6 °C 14.2 °C 1011.7 hPa SE 16.7 km/h 16.7 km/h 39 % 0.0 mm
14:53 29.3 °C 13.9 °C 1011.7 hPa WSW 18.0 km/h 18.0 km/h 39 % 0.0 mm
14:58 29.3 °C 13.9 °C 1011.7 hPa WSW 20.6 km/h 20.6 km/h 39 % 0.0 mm
15:03 28.9 °C 13.9 °C 1011.7 hPa SW 9.3 km/h 9.3 km/h 40 % 0.0 mm
15:08 29.0 °C 14.1 °C 1011.7 hPa SSW 24.1 km/h 24.1 km/h 40 % 0.0 mm
15:13 29.2 °C 14.2 °C 1011.7 hPa WNW 17.2 km/h 17.2 km/h 40 % 0.0 mm
15:18 28.8 °C 14.2 °C 1011.7 hPa South 18.5 km/h 18.5 km/h 41 % 0.0 mm
15:23 28.8 °C 14.2 °C 1011.7 hPa SW 20.4 km/h 20.4 km/h 41 % 0.0 mm
15:28 28.8 °C 14.6 °C 1011.7 hPa South 13.0 km/h 13.0 km/h 42 % 0.0 mm
15:33 29.0 °C 14.4 °C 1011.7 hPa WSW 13.0 km/h 13.0 km/h 41 % 0.0 mm
15:38 28.8 °C 14.6 °C 1011.7 hPa SW 24.5 km/h 24.5 km/h 42 % 0.0 mm
15:43 28.3 °C 14.5 °C 1011.7 hPa SSW 20.4 km/h 20.4 km/h 43 % 0.0 mm
15:48 28.7 °C 14.9 °C 1011.7 hPa SSW 9.3 km/h 9.7 km/h 43 % 0.0 mm
15:53 28.7 °C 14.9 °C 1011.7 hPa SW 22.2 km/h 22.2 km/h 43 % 0.0 mm
15:58 28.6 °C 15.2 °C 1011.7 hPa WSW 11.1 km/h 11.1 km/h 44 % 0.0 mm
16:03 28.8 °C 15.0 °C 1011.7 hPa South 9.3 km/h 10.0 km/h 43 % 0.0 mm
16:08 28.4 °C 14.6 °C 1011.7 hPa WNW 20.4 km/h 20.4 km/h 43 % 0.0 mm
16:13 28.2 °C 14.8 °C 1011.7 hPa South 24.1 km/h 24.1 km/h 44 % 0.0 mm
16:18 28.3 °C 14.9 °C 1011.7 hPa SSE 18.5 km/h 18.5 km/h 44 % 0.0 mm
16:23 28.4 °C 14.9 °C 1010.7 hPa WNW 14.8 km/h 14.8 km/h 44 % 0.0 mm
16:28 29.0 °C 15.2 °C 1010.7 hPa SSW 14.8 km/h 14.8 km/h 43 % 0.0 mm
16:29 29.1 °C 15.2 °C 1010.7 hPa WSW 19.5 km/h 19.5 km/h 43 % 0.0 mm
16:34 28.7 °C 15.2 °C 1011.7 hPa SW 17.5 km/h 17.5 km/h 44 % 0.0 mm
16:39 28.5 °C 15.1 °C 1011.7 hPa WSW 20.4 km/h 20.4 km/h 44 % 0.0 mm
16:44 28.4 °C 14.9 °C 1011.7 hPa South 14.8 km/h 14.8 km/h 44 % 0.0 mm
16:49 28.8 °C 15.7 °C 1011.7 hPa WSW 7.4 km/h 7.4 km/h 45 % 0.0 mm
16:54 28.8 °C 15.3 °C 1011.7 hPa WSW 13.7 km/h 13.7 km/h 44 % 0.0 mm
16:59 28.9 °C 15.8 °C 1011.7 hPa SW 7.4 km/h 7.4 km/h 45 % 0.0 mm
17:04 28.9 °C 15.4 °C 1011.7 hPa SSW 11.1 km/h 11.9 km/h 44 % 0.0 mm
17:09 28.4 °C 14.9 °C 1011.7 hPa SW 14.8 km/h 14.8 km/h 44 % 0.0 mm
17:14 28.5 °C 15.1 °C 1011.7 hPa WSW 20.4 km/h 20.4 km/h 44 % 0.0 mm
17:19 28.4 °C 15.3 °C 1011.7 hPa SSW 13.0 km/h 13.0 km/h 45 % 0.0 mm
17:24 28.3 °C 15.2 °C 1011.7 hPa WSW 11.1 km/h 11.1 km/h 45 % 0.0 mm
17:25 28.3 °C 15.2 °C 1011.7 hPa WSW 11.1 km/h 11.1 km/h 45 % 0.0 mm
17:30 28.3 °C 15.2 °C 1011.7 hPa South 13.0 km/h 13.0 km/h 45 % 0.0 mm
17:35 28.4 °C 15.3 °C 1011.7 hPa SSW 16.7 km/h 16.7 km/h 45 % 0.0 mm
17:40 28.5 °C 15.4 °C 1011.7 hPa SW 13.0 km/h 13.0 km/h 45 % 0.0 mm
17:45 28.2 °C 15.2 °C 1011.7 hPa SE 13.0 km/h 13.0 km/h 45 % 0.0 mm
17:50 28.1 °C 15.1 °C 1011.7 hPa SW 14.8 km/h 14.8 km/h 45 % 0.0 mm
17:55 28.0 °C 14.9 °C 1011.7 hPa South 7.4 km/h 7.4 km/h 45 % 0.0 mm
18:00 27.4 °C 14.8 °C 1011.7 hPa West 20.4 km/h 20.4 km/h 46 % 0.0 mm
18:05 27.1 °C 14.5 °C 1011.7 hPa WSW 20.4 km/h 20.4 km/h 46 % 0.0 mm
18:10 27.2 °C 14.6 °C 1011.7 hPa South 15.8 km/h 15.8 km/h 46 % 0.0 mm
18:15 27.3 °C 15.0 °C 1011.7 hPa WSW 14.8 km/h 14.8 km/h 47 % 0.0 mm
18:20 27.1 °C 14.8 °C 1010.7 hPa SSE 14.8 km/h 14.8 km/h 47 % 0.0 mm
18:25 27.1 °C 14.8 °C 1010.7 hPa SW 15.6 km/h 15.6 km/h 47 % 0.0 mm
18:30 27.1 °C 14.8 °C 1010.7 hPa South 17.5 km/h 17.5 km/h 47 % 0.0 mm
18:35 27.0 °C 15.1 °C 1010.7 hPa WSW 13.0 km/h 13.0 km/h 48 % 0.0 mm
18:40 27.0 °C 15.1 °C 1010.7 hPa SSW 22.2 km/h 22.2 km/h 48 % 0.0 mm
18:45 27.1 °C 15.2 °C 1010.7 hPa South 13.0 km/h 13.0 km/h 48 % 0.0 mm
18:50 27.0 °C 15.1 °C 1011.7 hPa WSW 13.0 km/h 13.0 km/h 48 % 0.0 mm
18:55 26.8 °C 15.5 °C 1011.7 hPa WSW 14.8 km/h 14.8 km/h 50 % 0.0 mm
18:56 26.8 °C 15.5 °C 1011.7 hPa South 14.8 km/h 14.8 km/h 50 % 0.0 mm
19:01 27.0 °C 15.4 °C 1011.7 hPa South 9.3 km/h 9.3 km/h 49 % 0.0 mm
19:06 26.8 °C 15.5 °C 1010.7 hPa SW 11.9 km/h 11.9 km/h 50 % 0.0 mm
19:11 26.7 °C 15.4 °C 1010.7 hPa SSW 11.1 km/h 11.1 km/h 50 % 0.0 mm
19:16 26.8 °C 15.8 °C 1010.7 hPa SW 13.0 km/h 13.0 km/h 51 % 0.0 mm
19:17 26.7 °C 15.7 °C 1010.7 hPa South 11.1 km/h 11.1 km/h 51 % 0.0 mm
19:22 26.5 °C 15.6 °C 1010.7 hPa SSW 9.3 km/h 9.3 km/h 51 % 0.0 mm
19:27 26.5 °C 15.6 °C 1010.7 hPa ENE 9.5 km/h 9.5 km/h 51 % 0.0 mm
19:32 26.3 °C 15.7 °C 1010.7 hPa South 13.0 km/h 13.0 km/h 52 % 0.0 mm
19:37 26.2 °C 15.6 °C 1010.7 hPa SSW 11.1 km/h 11.1 km/h 52 % 0.0 mm
19:42 26.2 °C 15.6 °C 1010.7 hPa SW 9.3 km/h 9.3 km/h 52 % 0.0 mm
19:47 25.9 °C 15.3 °C 1010.7 hPa SW 11.1 km/h 11.1 km/h 52 % 0.0 mm
19:52 25.7 °C 15.1 °C 1010.7 hPa SW 7.4 km/h 7.4 km/h 52 % 0.0 mm
19:57 25.4 °C 15.1 °C 1010.7 hPa SSW 11.1 km/h 11.1 km/h 53 % 0.0 mm
20:02 25.2 °C 14.9 °C 1010.7 hPa South 11.1 km/h 11.1 km/h 53 % 0.0 mm
20:07 25.2 °C 15.2 °C 1010.7 hPa SSE 5.6 km/h 5.6 km/h 54 % 0.0 mm
20:12 25.2 °C 15.2 °C 1010.7 hPa SW 5.6 km/h 5.6 km/h 54 % 0.0 mm
20:15 21.5 °C 16.4 °C 1011.7 hPa NE 3.2 km/h 3.2 km/h 73 % 0.0 mm
20:17 25.0 °C 15.1 °C 1010.7 hPa SW 9.3 km/h 9.3 km/h 54 % 0.0 mm
20:22 24.8 °C 15.4 °C 1011.7 hPa South 5.6 km/h 5.6 km/h 56 % 0.0 mm
20:24 24.8 °C 15.4 °C 1011.7 hPa SW 7.4 km/h 7.4 km/h 56 % 0.0 mm
20:25 21.4 °C 16.3 °C 1011.7 hPa NE 3.2 km/h 3.2 km/h 73 % 0.0 mm
20:29 24.6 °C 15.2 °C 1011.7 hPa SW 5.6 km/h 5.6 km/h 56 % 0.0 mm
20:34 24.7 °C 15.3 °C 1011.7 hPa SE 3.7 km/h 3.9 km/h 56 % 0.0 mm
20:35 21.3 °C 16.5 °C 1011.7 hPa NE 1.6 km/h 3.2 km/h 74 % 0.0 mm
20:39 24.6 °C 15.8 °C 1011.7 hPa ESE 11.1 km/h 11.1 km/h 58 % 0.0 mm
20:44 24.3 °C 15.5 °C 1011.7 hPa South 9.3 km/h 9.3 km/h 58 % 0.0 mm
20:45 21.3 °C 16.5 °C 1011.7 hPa ENE 1.6 km/h 4.8 km/h 74 % 0.0 mm
20:49 24.2 °C 15.7 °C 1011.7 hPa SSW 5.6 km/h 5.6 km/h 59 % 0.0 mm
20:54 24.0 °C 15.5 °C 1011.7 hPa SE 13.0 km/h 13.0 km/h 59 % 0.0 mm
20:55 21.3 °C 16.5 °C 1011.7 hPa ENE 1.6 km/h 4.8 km/h 74 % 0.0 mm
20:59 24.0 °C 15.8 °C 1011.7 hPa SSE 7.4 km/h 7.4 km/h 60 % 0.0 mm
21:04 23.9 °C 15.9 °C 1011.7 hPa South 5.6 km/h 5.6 km/h 61 % 0.0 mm
21:05 21.2 °C 16.6 °C 1011.7 hPa ENE 1.6 km/h 4.8 km/h 75 % 0.0 mm
21:09 23.8 °C 16.1 °C 1011.7 hPa East 10.3 km/h 10.3 km/h 62 % 0.0 mm
21:14 23.6 °C 16.2 °C 1011.7 hPa ESE 9.3 km/h 9.3 km/h 63 % 0.0 mm
21:15 21.2 °C 16.6 °C 1011.7 hPa East 1.6 km/h 3.2 km/h 75 % 0.0 mm
21:19 23.5 °C 16.3 °C 1012.8 hPa South 7.4 km/h 7.4 km/h 64 % 0.0 mm
21:24 23.4 °C 16.2 °C 1012.8 hPa ESE 9.3 km/h 9.3 km/h 64 % 0.0 mm
21:25 21.2 °C 16.6 °C 1011.7 hPa Calm   3.2 km/h 75 % 0.0 mm
21:29 23.3 °C 16.1 °C 1012.8 hPa ESE 11.1 km/h 11.1 km/h 64 % 0.0 mm
21:34 23.3 °C 16.3 °C 1010.7 hPa SE 9.3 km/h 9.3 km/h 65 % 0.0 mm
21:35 21.1 °C 16.3 °C 1011.7 hPa ESE 1.6 km/h   74 % 0.0 mm
21:39 23.2 °C 16.3 °C 1010.7 hPa SSE 7.4 km/h 7.4 km/h 65 % 0.0 mm
21:44 23.2 °C 16.3 °C 1010.7 hPa SE 3.2 km/h 3.2 km/h 65 % 0.0 mm
21:45 21.1 °C 16.3 °C 1011.7 hPa Calm     74 % 0.0 mm
21:49 23.2 °C 16.5 °C 1011.7 hPa SSE 4.2 km/h 4.2 km/h 66 % 0.0 mm
21:54 23.2 °C 16.3 °C 1011.7 hPa SE 3.9 km/h 3.9 km/h 65 % 0.0 mm
21:55 21.1 °C 16.3 °C 1011.7 hPa SW 1.6 km/h 3.2 km/h 74 % 0.0 mm
21:59 23.1 °C 16.4 °C 1011.7 hPa ESE 7.6 km/h 7.6 km/h 66 % 0.0 mm
22:04 23.0 °C 16.3 °C 1011.7 hPa SSE 5.6 km/h 5.6 km/h 66 % 0.0 mm
22:05 21.1 °C 16.5 °C 1011.7 hPa SW 3.2 km/h 3.2 km/h 75 % 0.0 mm
22:09 23.0 °C 16.3 °C 1011.7 hPa ESE 5.6 km/h 5.6 km/h 66 % 0.0 mm
22:14 22.9 °C 16.4 °C 1011.7 hPa ENE 5.6 km/h 5.6 km/h 67 % 0.0 mm
22:15 21.0 °C 15.3 °C 1011.7 hPa WSW 3.2 km/h 6.4 km/h 70 % 0.0 mm
22:19 22.8 °C 16.6 °C 1011.7 hPa East 5.6 km/h 5.6 km/h 68 % 0.0 mm
22:24 22.7 °C 16.5 °C 1011.7 hPa ENE 3.7 km/h 3.7 km/h 68 % 0.0 mm
22:25 21.0 °C 13.9 °C 1010.7 hPa WSW 4.8 km/h 6.4 km/h 64 % 0.0 mm
22:29 22.8 °C 16.6 °C 1011.7 hPa ESE 5.6 km/h 5.6 km/h 68 % 0.0 mm
22:34 22.8 °C 16.3 °C 1011.7 hPa ESE 3.2 km/h 3.2 km/h 67 % 0.0 mm
22:35 20.9 °C 13.1 °C 1011.7 hPa WSW 3.2 km/h 8.0 km/h 61 % 0.0 mm
22:39 22.8 °C 16.3 °C 1011.7 hPa East 4.7 km/h 4.7 km/h 67 % 0.0 mm
22:44 22.8 °C 16.6 °C 1011.7 hPa NE 5.6 km/h 5.6 km/h 68 % 0.0 mm
22:45 20.8 °C 12.5 °C 1011.7 hPa WSW 3.2 km/h 4.8 km/h 59 % 0.0 mm
22:49 22.7 °C 16.5 °C 1011.7 hPa East 1.9 km/h 1.9 km/h 68 % 0.0 mm
22:54 22.8 °C 16.6 °C 1011.7 hPa ENE 5.6 km/h 5.6 km/h 68 % 0.0 mm
22:55 20.8 °C 12.5 °C 1011.7 hPa West 3.2 km/h 4.8 km/h 59 % 0.0 mm
22:59 22.7 °C 16.5 °C 1011.7 hPa ENE 3.9 km/h 3.9 km/h 68 % 0.0 mm
23:04 22.7 °C 16.5 °C 1011.7 hPa ENE 5.3 km/h 5.3 km/h 68 % 0.0 mm
23:05 20.7 °C 11.9 °C 1010.7 hPa WNW 1.6 km/h 4.8 km/h 57 % 0.0 mm
23:09 22.6 °C 16.6 °C 1011.7 hPa NNE 5.6 km/h 5.6 km/h 69 % 0.0 mm
23:14 22.6 °C 16.6 °C 1011.7 hPa ESE 3.7 km/h 3.7 km/h 69 % 0.0 mm
23:15 20.6 °C 11.8 °C 1010.7 hPa NW 1.6 km/h 3.2 km/h 57 % 0.0 mm
23:19 22.5 °C 16.5 °C 1011.7 hPa ENE 5.6 km/h 5.6 km/h 69 % 0.0 mm
23:24 22.5 °C 16.5 °C 1011.7 hPa East 4.2 km/h 4.2 km/h 69 % 0.0 mm
23:25 20.4 °C 11.3 °C 1011.7 hPa WNW 1.6 km/h 4.8 km/h 56 % 0.0 mm
23:29 22.5 °C 16.8 °C 1011.7 hPa NE 3.7 km/h 3.7 km/h 70 % 0.0 mm
23:34 22.4 °C 16.7 °C 1011.7 hPa East 2.6 km/h 2.6 km/h 70 % 0.0 mm
23:35 20.1 °C 11.1 °C 1011.7 hPa WNW 1.6 km/h 4.8 km/h 56 % 0.0 mm
23:39 22.4 °C 16.7 °C 1011.7 hPa ENE 4.7 km/h 4.7 km/h 70 % 0.0 mm
23:44 22.4 °C 16.7 °C 1011.7 hPa ENE 3.7 km/h 3.7 km/h 70 % 0.0 mm
23:45 19.9 °C 11.1 °C 1011.7 hPa North 3.2 km/h 3.2 km/h 57 % 0.0 mm
23:49 22.3 °C 16.6 °C 1011.7 hPa ENE 3.7 km/h 3.7 km/h 70 % 0.0 mm
23:54 22.3 °C 16.6 °C 1011.7 hPa NNE 5.6 km/h 5.6 km/h 70 % 0.0 mm
23:55 19.7 °C 10.9 °C 1011.7 hPa NE 1.6 km/h 6.4 km/h 57 % 0.0 mm
23:59 22.3 °C 16.6 °C 1011.7 hPa ENE 3.7 km/h 3.7 km/h 70 % 0.0 mm
Meteo Sesrovires
Elogis d' Weather Underground - 3.75 mb

Guio original per  Jim McMurry - jmcmurry@mwt.net Adaptat per a la plantilla per  Wim van der Kuil - Leuven-Template.eu

Trobareu la nostra informacio del temps tambe a:

Weather Underground

AWEKAS